createdAt,value
2023-04-28T00:00:42.698Z,90.84
2023-04-28T00:01:42.696Z,90.30
2023-04-28T00:02:42.791Z,90.50
2023-04-28T00:03:42.875Z,91.52
2023-04-28T00:04:42.785Z,91.63
2023-04-28T00:05:42.946Z,91.83
2023-04-28T00:06:42.678Z,92.14
2023-04-28T00:07:42.676Z,92.24
2023-04-28T00:08:42.674Z,92.24
2023-04-28T00:09:42.692Z,92.24
2023-04-28T00:10:42.668Z,92.24
2023-04-28T00:11:42.663Z,92.24
2023-04-28T00:12:42.681Z,92.24
2023-04-28T00:13:42.654Z,92.75
2023-04-28T00:14:42.667Z,93.57
2023-04-28T00:15:42.646Z,93.47
2023-04-28T00:16:42.798Z,93.37
2023-04-28T00:17:42.798Z,93.37
2023-04-28T00:18:42.641Z,93.26
2023-04-28T00:19:42.644Z,93.16
2023-04-28T00:20:42.641Z,93.77
2023-04-28T00:21:42.627Z,93.67
2023-04-28T00:22:42.646Z,93.16
2023-04-28T00:23:42.621Z,93.16
2023-04-28T00:24:42.623Z,93.51
2023-04-28T00:25:42.630Z,93.30
2023-04-28T00:26:42.608Z,93.41
2023-04-28T00:27:42.606Z,93.41
2023-04-28T00:28:42.617Z,93.20
2023-04-28T00:29:42.597Z,93.41
2023-04-28T00:30:42.599Z,93.41
2023-04-28T00:31:42.661Z,93.26
2023-04-28T00:32:42.623Z,93.92
2023-04-28T00:33:42.586Z,93.62
2023-04-28T00:34:42.582Z,93.51
2023-04-28T00:35:42.582Z,93.71
2023-04-28T00:36:42.600Z,93.62
2023-04-28T00:37:42.569Z,93.77
2023-04-28T00:38:42.571Z,93.62
2023-04-28T00:39:42.562Z,94.23
2023-04-28T00:40:42.573Z,94.23
2023-04-28T00:41:42.592Z,94.54
2023-04-28T00:42:42.577Z,94.80
2023-04-28T00:43:42.556Z,94.54
2023-04-28T00:44:42.549Z,94.74
2023-04-28T00:45:42.555Z,94.43
2023-04-28T00:46:42.544Z,94.74
2023-04-28T00:47:42.589Z,94.84
2023-04-28T00:48:42.542Z,94.74
2023-04-28T00:49:42.530Z,94.74
2023-04-28T00:50:42.537Z,94.33
2023-04-28T00:51:42.545Z,94.54
2023-04-28T00:52:42.523Z,94.74
2023-04-28T00:53:42.517Z,94.74
2023-04-28T00:54:42.511Z,94.64
2023-04-28T00:55:42.509Z,94.95
2023-04-28T00:56:42.510Z,94.54
2023-04-28T00:57:42.532Z,94.84
2023-04-28T00:58:42.502Z,94.74
2023-04-28T00:59:42.504Z,94.54
2023-04-28T01:00:42.492Z,94.54
2023-04-28T01:01:42.524Z,94.54
2023-04-28T01:02:42.593Z,94.64
2023-04-28T01:03:42.549Z,94.43
2023-04-28T01:04:42.554Z,94.95
2023-04-28T01:05:42.829Z,94.84
2023-04-28T01:06:42.472Z,94.84
2023-04-28T01:07:42.471Z,95.46
2023-04-28T01:08:42.475Z,95.25
2023-04-28T01:09:42.462Z,95.46
2023-04-28T01:10:42.458Z,94.84
2023-04-28T01:11:42.456Z,95.36
2023-04-28T01:12:42.451Z,95.72
2023-04-28T01:13:42.464Z,95.82
2023-04-28T01:14:42.446Z,96.07
2023-04-28T01:15:42.441Z,96.23
2023-04-28T01:16:42.523Z,95.66
2023-04-28T01:17:42.471Z,95.87
2023-04-28T01:18:42.430Z,95.56
2023-04-28T01:19:42.434Z,95.87
2023-04-28T01:20:42.433Z,95.97
2023-04-28T01:21:42.422Z,95.66
2023-04-28T01:22:42.427Z,95.97
2023-04-28T01:23:42.413Z,95.66
2023-04-28T01:24:42.412Z,95.66
2023-04-28T01:25:42.417Z,95.56
2023-04-28T01:26:42.403Z,95.56
2023-04-28T01:27:42.396Z,95.46
2023-04-28T01:28:42.396Z,96.07
2023-04-28T01:29:42.477Z,95.56
2023-04-28T01:30:42.393Z,95.97
2023-04-28T01:31:42.424Z,95.97
2023-04-28T01:32:42.407Z,95.97
2023-04-28T01:33:42.381Z,95.97
2023-04-28T01:34:42.380Z,96.28
2023-04-28T01:35:42.371Z,96.17
2023-04-28T01:36:42.373Z,96.17
2023-04-28T01:37:42.369Z,96.07
2023-04-28T01:38:42.375Z,96.17
2023-04-28T01:39:42.357Z,96.28
2023-04-28T01:40:42.363Z,96.48
2023-04-28T01:41:42.349Z,96.58
2023-04-28T01:42:42.347Z,96.58
2023-04-28T01:43:42.343Z,96.58
2023-04-28T01:44:42.349Z,96.69
2023-04-28T01:45:42.361Z,96.48
2023-04-28T01:46:42.383Z,96.48
2023-04-28T01:47:42.375Z,96.07
2023-04-28T01:48:42.330Z,96.58
2023-04-28T01:49:42.324Z,96.48
2023-04-28T01:50:42.322Z,96.07
2023-04-28T01:51:42.317Z,96.58
2023-04-28T01:52:42.321Z,96.48
2023-04-28T01:53:42.309Z,96.38
2023-04-28T01:54:42.311Z,97.20
2023-04-28T01:55:42.306Z,97.09
2023-04-28T01:56:42.302Z,97.20
2023-04-28T01:57:42.297Z,97.81
2023-04-28T01:58:42.309Z,97.71
2023-04-28T01:59:42.292Z,97.20
2023-04-28T02:00:42.285Z,97.50
2023-04-28T02:01:42.344Z,97.20
2023-04-28T02:02:42.355Z,97.09
2023-04-28T02:03:42.422Z,97.30
2023-04-28T02:04:42.362Z,96.99
2023-04-28T02:05:42.620Z,97.20
2023-04-28T02:06:42.266Z,96.99
2023-04-28T02:07:42.265Z,97.09
2023-04-28T02:08:42.257Z,96.69
2023-04-28T02:09:42.254Z,96.83
2023-04-28T02:10:42.264Z,96.69
2023-04-28T02:11:42.255Z,96.42
2023-04-28T02:12:42.244Z,96.94
2023-04-28T02:13:42.265Z,96.99
2023-04-28T02:14:42.236Z,97.09
2023-04-28T02:15:42.271Z,97.20
2023-04-28T02:16:42.229Z,97.34
2023-04-28T02:17:42.300Z,97.24
2023-04-28T02:18:42.220Z,97.24
2023-04-28T02:19:42.220Z,97.34
2023-04-28T02:20:42.213Z,97.14
2023-04-28T02:21:42.210Z,97.45
2023-04-28T02:22:42.221Z,97.55
2023-04-28T02:23:42.213Z,97.86
2023-04-28T02:24:42.202Z,97.91
2023-04-28T02:25:42.197Z,97.65
2023-04-28T02:26:42.190Z,97.65
2023-04-28T02:27:42.191Z,97.91
2023-04-28T02:28:42.183Z,98.37
2023-04-28T02:29:42.197Z,98.21
2023-04-28T02:30:42.185Z,98.11
2023-04-28T02:31:42.284Z,98.11
2023-04-28T02:32:42.182Z,97.91
2023-04-28T02:33:42.193Z,97.80
2023-04-28T02:34:42.160Z,98.00
2023-04-28T02:35:42.167Z,97.80
2023-04-28T02:36:42.155Z,98.52
2023-04-28T02:37:42.154Z,98.32
2023-04-28T02:38:42.149Z,98.32
2023-04-28T02:39:42.145Z,98.42
2023-04-28T02:40:42.143Z,98.42
2023-04-28T02:41:42.139Z,98.42
2023-04-28T02:42:42.138Z,98.52
2023-04-28T02:43:42.136Z,98.52
2023-04-28T02:44:42.127Z,98.52
2023-04-28T02:45:42.124Z,99.24
2023-04-28T02:46:42.154Z,98.93
2023-04-28T02:47:42.125Z,98.62
2023-04-28T02:48:42.112Z,99.13
2023-04-28T02:49:42.148Z,98.62
2023-04-28T02:50:42.106Z,98.97
2023-04-28T02:51:42.105Z,98.77
2023-04-28T02:52:42.106Z,99.03
2023-04-28T02:53:42.105Z,98.87
2023-04-28T02:54:42.098Z,99.13
2023-04-28T02:55:42.098Z,98.87
2023-04-28T02:56:42.088Z,99.13
2023-04-28T02:57:42.083Z,98.77
2023-04-28T02:58:42.081Z,98.77
2023-04-28T02:59:42.114Z,98.83
2023-04-28T03:00:42.079Z,98.93
2023-04-28T03:01:42.178Z,98.83
2023-04-28T03:02:42.153Z,98.93
2023-04-28T03:03:42.178Z,98.83
2023-04-28T03:04:42.178Z,98.93
2023-04-28T03:05:42.075Z,98.57
2023-04-28T03:06:42.068Z,98.72
2023-04-28T03:07:42.050Z,99.44
2023-04-28T03:08:42.045Z,98.83
2023-04-28T03:09:42.466Z,99.44
2023-04-28T03:10:42.045Z,98.97
2023-04-28T03:11:42.032Z,99.08
2023-04-28T03:12:42.036Z,98.67
2023-04-28T03:13:42.046Z,99.13
2023-04-28T03:14:42.021Z,99.18
2023-04-28T03:15:42.019Z,99.24
2023-04-28T03:16:42.161Z,99.28
2023-04-28T03:17:42.108Z,99.38
2023-04-28T03:18:42.004Z,99.28
2023-04-28T03:19:42.005Z,98.97
2023-04-28T03:20:41.998Z,99.08
2023-04-28T03:21:42.016Z,99.08
2023-04-28T03:22:41.993Z,98.87
2023-04-28T03:23:41.997Z,99.08
2023-04-28T03:24:41.990Z,99.08
2023-04-28T03:25:41.986Z,99.59
2023-04-28T03:26:41.978Z,99.49
2023-04-28T03:27:41.986Z,99.49
2023-04-28T03:28:41.969Z,99.38
2023-04-28T03:29:41.981Z,99.28
2023-04-28T03:30:41.970Z,99.28
2023-04-28T03:31:41.997Z,99.79
2023-04-28T03:32:41.984Z,99.49
2023-04-28T03:33:41.950Z,99.49
2023-04-28T03:34:41.948Z,99.49
2023-04-28T03:35:41.969Z,99.69
2023-04-28T03:36:41.940Z,99.38
2023-04-28T03:37:41.963Z,99.90
2023-04-28T03:38:41.951Z,99.59
2023-04-28T03:39:41.931Z,99.90
2023-04-28T03:40:41.945Z,99.69
2023-04-28T03:41:41.932Z,99.79
2023-04-28T03:42:41.923Z,99.99
2023-04-28T03:43:41.916Z,99.99
2023-04-28T03:44:41.914Z,99.90
2023-04-28T03:45:41.946Z,99.99
2023-04-28T03:46:41.906Z,99.90
2023-04-28T03:47:41.904Z,99.79
2023-04-28T03:48:41.902Z,99.90
2023-04-28T03:49:41.894Z,99.99
2023-04-28T03:50:41.890Z,99.79
2023-04-28T03:51:41.888Z,99.99
2023-04-28T03:52:41.886Z,99.99
2023-04-28T03:53:41.901Z,99.99
2023-04-28T03:54:41.875Z,99.90
2023-04-28T03:55:41.875Z,99.90
2023-04-28T03:56:41.873Z,99.79
2023-04-28T03:57:41.870Z,99.79
2023-04-28T03:58:41.889Z,99.59
2023-04-28T03:59:41.864Z,99.79
2023-04-28T04:00:41.865Z,99.90
2023-04-28T04:01:41.857Z,99.59
2023-04-28T04:02:41.927Z,99.79
2023-04-28T04:03:42.214Z,99.90
2023-04-28T04:04:42.020Z,99.59
2023-04-28T04:05:41.920Z,99.59
2023-04-28T04:06:41.854Z,99.59
2023-04-28T04:07:41.836Z,99.90
2023-04-28T04:08:41.832Z,99.08
2023-04-28T04:09:41.872Z,99.79
2023-04-28T04:10:42.270Z,99.49
2023-04-28T04:11:41.819Z,99.59
2023-04-28T04:12:41.811Z,99.63
2023-04-28T04:13:41.810Z,99.69
2023-04-28T04:14:41.800Z,99.59
2023-04-28T04:15:41.893Z,99.84
2023-04-28T04:16:41.803Z,99.90
2023-04-28T04:17:41.819Z,99.99
2023-04-28T04:18:41.789Z,99.99
2023-04-28T04:19:41.787Z,99.99
2023-04-28T04:20:41.784Z,99.99
2023-04-28T04:21:41.786Z,99.99
2023-04-28T04:22:41.774Z,99.99
2023-04-28T04:23:41.837Z,99.99
2023-04-28T04:24:41.773Z,99.99
2023-04-28T04:25:41.781Z,99.99
2023-04-28T04:26:41.764Z,99.99
2023-04-28T04:27:41.754Z,99.99
2023-04-28T04:28:41.748Z,99.99
2023-04-28T04:29:41.747Z,99.99
2023-04-28T04:30:41.741Z,99.99
2023-04-28T04:31:41.896Z,99.90
2023-04-28T04:32:41.768Z,99.99
2023-04-28T04:33:41.734Z,99.99
2023-04-28T04:34:41.726Z,99.99
2023-04-28T04:35:41.725Z,99.99
2023-04-28T04:36:41.715Z,99.99
2023-04-28T04:37:41.717Z,99.99
2023-04-28T04:38:41.709Z,99.90
2023-04-28T04:39:41.705Z,99.99
2023-04-28T04:40:41.701Z,99.85
2023-04-28T04:41:41.725Z,99.99
2023-04-28T04:42:41.690Z,99.99
2023-04-28T04:43:41.694Z,99.99
2023-04-28T04:44:41.693Z,99.99
2023-04-28T04:45:41.684Z,99.99
2023-04-28T04:46:41.710Z,99.99
2023-04-28T04:47:41.692Z,99.99
2023-04-28T04:48:41.670Z,99.95
2023-04-28T04:49:41.667Z,99.99
2023-04-28T04:50:41.663Z,99.99
2023-04-28T04:51:41.665Z,99.99
2023-04-28T04:52:41.675Z,99.99
2023-04-28T04:53:41.655Z,99.99
2023-04-28T04:54:41.658Z,99.99
2023-04-28T04:55:41.653Z,99.99
2023-04-28T04:56:41.641Z,99.99
2023-04-28T04:57:41.670Z,99.38
2023-04-28T04:58:41.639Z,99.90
2023-04-28T04:59:41.634Z,99.59
2023-04-28T05:00:41.632Z,99.49
2023-04-28T05:01:41.688Z,99.28
2023-04-28T05:02:41.783Z,99.24
2023-04-28T05:03:41.726Z,99.28
2023-04-28T05:04:41.685Z,99.59
2023-04-28T05:05:41.620Z,99.44
2023-04-28T05:06:41.614Z,99.34
2023-04-28T05:07:41.601Z,99.08
2023-04-28T05:08:41.602Z,99.54
2023-04-28T05:09:41.598Z,99.75
2023-04-28T05:10:41.595Z,99.44
2023-04-28T05:11:41.596Z,99.44
2023-04-28T05:12:41.584Z,99.54
2023-04-28T05:13:41.611Z,98.93
2023-04-28T05:14:41.585Z,99.91
2023-04-28T05:15:41.928Z,99.85
2023-04-28T05:16:41.658Z,99.50
2023-04-28T05:17:41.589Z,99.80
2023-04-28T05:18:41.574Z,99.60
2023-04-28T05:19:41.562Z,99.50
2023-04-28T05:20:41.559Z,99.60
2023-04-28T05:21:41.555Z,99.80
2023-04-28T05:22:41.552Z,99.80
2023-04-28T05:23:41.550Z,99.80
2023-04-28T05:24:41.545Z,99.19
2023-04-28T05:25:41.552Z,99.19
2023-04-28T05:26:41.545Z,99.40
2023-04-28T05:27:41.539Z,99.24
2023-04-28T05:28:41.538Z,99.19
2023-04-28T05:29:41.554Z,98.99
2023-04-28T05:30:41.519Z,99.19
2023-04-28T05:31:41.562Z,99.19
2023-04-28T05:32:41.574Z,99.19
2023-04-28T05:33:41.523Z,99.40
2023-04-28T05:34:41.509Z,99.40
2023-04-28T05:35:41.504Z,99.19
2023-04-28T05:36:41.499Z,99.65
2023-04-28T05:37:41.501Z,99.40
2023-04-28T05:38:41.501Z,99.19
2023-04-28T05:39:41.491Z,99.50
2023-04-28T05:40:41.483Z,99.50
2023-04-28T05:41:41.484Z,98.99
2023-04-28T05:42:41.492Z,99.80
2023-04-28T05:43:41.473Z,99.70
2023-04-28T05:44:43.115Z,99.60
2023-04-28T05:45:41.509Z,99.70
2023-04-28T05:46:41.510Z,99.60
2023-04-28T05:47:41.493Z,99.70
2023-04-28T05:48:41.461Z,99.70
2023-04-28T05:49:41.458Z,99.60
2023-04-28T05:50:41.447Z,99.50
2023-04-28T05:51:41.452Z,99.80
2023-04-28T05:52:41.443Z,99.50
2023-04-28T05:53:41.437Z,99.40
2023-04-28T05:54:41.440Z,99.19
2023-04-28T05:55:41.461Z,99.29
2023-04-28T05:56:41.423Z,98.99
2023-04-28T05:57:51.813Z,98.99
2023-04-28T05:58:41.423Z,99.80
2023-04-28T05:59:41.426Z,99.50
2023-04-28T06:00:41.434Z,99.60
2023-04-28T06:01:41.440Z,99.60
2023-04-28T06:02:41.503Z,99.99
2023-04-28T06:03:41.561Z,99.70
2023-04-28T06:04:41.651Z,99.99
2023-04-28T06:05:41.525Z,99.99
2023-04-28T06:06:41.403Z,99.99
2023-04-28T06:07:41.405Z,99.91
2023-04-28T06:08:41.385Z,99.99
2023-04-28T06:09:41.377Z,99.99
2023-04-28T06:10:41.382Z,99.86
2023-04-28T06:11:41.380Z,99.99
2023-04-28T06:12:41.372Z,99.99
2023-04-28T06:13:41.384Z,99.99
2023-04-28T06:14:41.367Z,99.91
2023-04-28T06:15:41.606Z,99.99
2023-04-28T06:16:41.365Z,99.99
2023-04-28T06:17:41.443Z,99.99
2023-04-28T06:18:41.350Z,99.99
2023-04-28T06:19:41.345Z,99.96
2023-04-28T06:20:41.348Z,99.99
2023-04-28T06:21:41.339Z,99.99
2023-04-28T06:22:41.361Z,99.96
2023-04-28T06:23:41.337Z,99.99
2023-04-28T06:24:41.328Z,99.66
2023-04-28T06:25:41.325Z,99.96
2023-04-28T06:26:41.322Z,99.99
2023-04-28T06:27:41.339Z,99.61
2023-04-28T06:28:41.325Z,99.99
2023-04-28T06:29:41.314Z,99.99
2023-04-28T06:30:41.308Z,99.91
2023-04-28T06:31:41.348Z,99.91
2023-04-28T06:32:41.351Z,99.99
2023-04-28T06:33:41.316Z,99.61
2023-04-28T06:34:41.295Z,99.91
2023-04-28T06:35:41.287Z,99.82
2023-04-28T06:36:41.291Z,99.99
2023-04-28T06:37:41.282Z,99.99
2023-04-28T06:38:41.283Z,99.99
2023-04-28T06:39:41.276Z,99.99
2023-04-28T06:40:41.374Z,99.87
2023-04-28T06:41:41.267Z,99.99
2023-04-28T06:42:41.277Z,99.99
2023-04-28T06:43:41.266Z,99.99
2023-04-28T06:44:41.261Z,99.99
2023-04-28T06:45:41.264Z,99.87
2023-04-28T06:46:41.298Z,99.99
2023-04-28T06:47:41.288Z,99.99
2023-04-28T06:48:41.258Z,99.99
2023-04-28T06:49:41.272Z,99.99
2023-04-28T06:50:43.466Z,99.99
2023-04-28T06:51:41.232Z,99.99
2023-04-28T06:52:41.234Z,99.99
2023-04-28T06:53:41.226Z,99.99
2023-04-28T06:54:41.229Z,99.87
2023-04-28T06:55:41.230Z,99.98
2023-04-28T06:56:41.223Z,99.66
2023-04-28T06:57:41.223Z,99.87
2023-04-28T06:58:41.214Z,99.99
2023-04-28T06:59:41.211Z,99.98
2023-04-28T07:00:41.221Z,99.99
2023-04-28T07:01:41.258Z,99.99
2023-04-28T07:02:41.366Z,99.99
2023-04-28T07:03:41.318Z,99.99
2023-04-28T07:04:41.191Z,99.99
2023-04-28T07:05:41.213Z,99.77
2023-04-28T07:06:41.227Z,99.82
2023-04-28T07:07:41.184Z,99.87
2023-04-28T07:08:41.176Z,99.99
2023-04-28T07:09:41.185Z,99.99
2023-04-28T07:10:41.173Z,99.99
2023-04-28T07:11:41.181Z,99.99
2023-04-28T07:12:41.165Z,99.99
2023-04-28T07:13:41.178Z,99.72
2023-04-28T07:14:41.174Z,99.72
2023-04-28T07:15:41.168Z,99.82
2023-04-28T07:16:41.169Z,99.99
2023-04-28T07:17:41.189Z,99.99
2023-04-28T07:18:41.147Z,99.99
2023-04-28T07:19:41.149Z,99.99
2023-04-28T07:20:41.142Z,99.99
2023-04-28T07:21:41.165Z,99.99
2023-04-28T07:22:41.142Z,99.99
2023-04-28T07:23:41.146Z,99.99
2023-04-28T07:24:41.130Z,99.99
2023-04-28T07:25:41.129Z,99.99
2023-04-28T07:26:41.123Z,99.99
2023-04-28T07:27:41.118Z,99.99
2023-04-28T07:28:41.120Z,99.99
2023-04-28T07:29:41.109Z,99.99
2023-04-28T07:30:41.105Z,99.99
2023-04-28T07:31:41.113Z,99.93
2023-04-28T07:32:41.153Z,99.99
2023-04-28T07:33:41.095Z,99.99
2023-04-28T07:34:41.091Z,99.99
2023-04-28T07:35:41.092Z,99.99
2023-04-28T07:36:41.088Z,99.99
2023-04-28T07:37:41.100Z,99.99
2023-04-28T07:38:41.096Z,99.99
2023-04-28T07:39:41.089Z,99.99
2023-04-28T07:40:41.072Z,99.99
2023-04-28T07:41:41.074Z,99.99
2023-04-28T07:42:41.092Z,99.99
2023-04-28T07:43:41.079Z,99.99
2023-04-28T07:44:41.063Z,99.99
2023-04-28T07:45:41.142Z,99.99
2023-04-28T07:46:41.058Z,99.99
2023-04-28T07:47:41.063Z,99.99
2023-04-28T07:48:41.050Z,99.99
2023-04-28T07:49:41.042Z,99.99
2023-04-28T07:50:41.050Z,99.99
2023-04-28T07:51:41.055Z,99.99
2023-04-28T07:52:41.054Z,99.99
2023-04-28T07:53:41.249Z,99.99
2023-04-28T07:54:41.034Z,99.99
2023-04-28T07:55:41.019Z,99.99
2023-04-28T07:56:41.019Z,99.99
2023-04-28T07:57:41.023Z,99.99
2023-04-28T07:58:41.017Z,99.99
2023-04-28T07:59:41.025Z,99.99
2023-04-28T08:00:41.211Z,99.99
2023-04-28T08:01:41.001Z,99.99
2023-04-28T08:02:41.164Z,99.99
2023-04-28T08:03:41.280Z,99.98
2023-04-28T08:04:41.182Z,99.99
2023-04-28T08:05:41.026Z,99.99
2023-04-28T08:06:40.994Z,99.99
2023-04-28T08:07:40.992Z,99.99
2023-04-28T08:08:40.978Z,99.88
2023-04-28T08:10:40.973Z,99.99
2023-04-28T08:11:40.970Z,99.99
2023-04-28T08:12:40.997Z,99.99
2023-04-28T08:13:40.970Z,99.88
2023-04-28T08:14:40.963Z,99.99
2023-04-28T08:15:41.013Z,99.99
2023-04-28T08:16:40.954Z,99.99
2023-04-28T08:17:40.970Z,99.99
2023-04-28T08:18:40.982Z,99.99
2023-04-28T08:19:40.942Z,99.99
2023-04-28T08:20:40.943Z,99.99
2023-04-28T08:21:40.934Z,99.99
2023-04-28T08:22:40.937Z,99.99
2023-04-28T08:23:40.944Z,99.99
2023-04-28T08:24:40.930Z,99.99
2023-04-28T08:25:40.940Z,99.99
2023-04-28T08:26:40.920Z,99.99
2023-04-28T08:27:40.914Z,99.99
2023-04-28T08:28:40.909Z,99.99
2023-04-28T08:29:40.925Z,99.99
2023-04-28T08:30:40.910Z,99.99
2023-04-28T08:31:40.940Z,99.99
2023-04-28T08:32:40.947Z,99.99
2023-04-28T08:33:40.918Z,99.99
2023-04-28T08:34:40.902Z,99.99
2023-04-28T08:35:40.893Z,99.99
2023-04-28T08:36:40.887Z,99.99
2023-04-28T08:37:40.894Z,99.99
2023-04-28T08:38:40.884Z,99.99
2023-04-28T08:39:40.896Z,99.99
2023-04-28T08:40:40.871Z,99.99
2023-04-28T08:41:40.893Z,99.99
2023-04-28T08:42:40.882Z,99.99
2023-04-28T08:43:40.861Z,99.99
2023-04-28T08:44:40.863Z,99.99
2023-04-28T08:45:40.938Z,99.99
2023-04-28T08:46:40.892Z,99.99
2023-04-28T08:47:40.942Z,99.99
2023-04-28T08:48:40.854Z,99.99
2023-04-28T08:49:40.849Z,99.99
2023-04-28T08:50:40.841Z,99.99
2023-04-28T08:51:42.182Z,99.99
2023-04-28T08:52:40.837Z,99.99
2023-04-28T08:54:06.161Z,99.99
2023-04-28T08:54:40.827Z,99.99
2023-04-28T08:55:40.831Z,99.99
2023-04-28T08:56:40.831Z,99.99
2023-04-28T08:57:41.461Z,99.99
2023-04-28T08:58:41.015Z,99.99
2023-04-28T08:59:40.814Z,99.99
2023-04-28T09:00:40.810Z,99.99
2023-04-28T09:01:40.825Z,99.99
2023-04-28T09:02:40.860Z,99.99
2023-04-28T09:03:40.971Z,99.99
2023-04-28T09:04:41.126Z,99.99
2023-04-28T09:05:40.923Z,99.99
2023-04-28T09:06:40.834Z,99.69
2023-04-28T09:07:40.850Z,99.79
2023-04-28T09:08:40.788Z,99.90
2023-04-28T09:09:40.828Z,99.99
2023-04-28T09:10:40.786Z,99.99
2023-04-28T09:11:40.787Z,99.99
2023-04-28T09:12:40.792Z,99.99
2023-04-28T09:13:40.786Z,99.99
2023-04-28T09:14:40.768Z,99.99
2023-04-28T09:15:40.765Z,99.99
2023-04-28T09:16:40.808Z,99.99
2023-04-28T09:17:40.816Z,99.99
2023-04-28T09:18:40.765Z,99.99
2023-04-28T09:19:40.756Z,99.99
2023-04-28T09:20:40.758Z,99.99
2023-04-28T09:21:40.759Z,99.99
2023-04-28T09:22:40.777Z,99.99
2023-04-28T09:23:40.739Z,99.99
2023-04-28T09:24:40.737Z,99.99
2023-04-28T09:25:40.748Z,99.99
2023-04-28T09:26:40.737Z,99.99
2023-04-28T09:27:40.742Z,99.99
2023-04-28T09:28:40.744Z,99.99
2023-04-28T09:29:40.748Z,99.99
2023-04-28T09:30:40.730Z,99.99
2023-04-28T09:31:40.817Z,99.99
2023-04-28T09:32:40.816Z,99.99
2023-04-28T09:33:40.714Z,99.99
2023-04-28T09:34:40.715Z,99.99
2023-04-28T09:35:40.713Z,99.99
2023-04-28T09:36:40.709Z,99.99
2023-04-28T09:37:40.731Z,99.99
2023-04-28T09:38:40.728Z,99.99
2023-04-28T09:39:40.701Z,99.99
2023-04-28T09:40:40.705Z,99.99
2023-04-28T09:41:40.712Z,99.99
2023-04-28T09:42:40.705Z,99.99
2023-04-28T09:43:40.688Z,99.99
2023-04-28T09:44:40.688Z,99.99
2023-04-28T09:45:40.716Z,99.99
2023-04-28T09:46:40.689Z,99.99
2023-04-28T09:47:40.843Z,99.99
2023-04-28T09:48:40.681Z,99.99
2023-04-28T09:49:40.673Z,99.99
2023-04-28T09:50:40.682Z,99.99
2023-04-28T09:51:40.666Z,99.99
2023-04-28T09:52:40.674Z,99.99
2023-04-28T09:53:40.661Z,99.99
2023-04-28T09:54:40.663Z,99.99
2023-04-28T09:55:40.653Z,99.99
2023-04-28T09:56:40.839Z,99.99
2023-04-28T09:57:40.702Z,99.99
2023-04-28T09:58:40.863Z,99.99
2023-04-28T09:59:40.663Z,99.99
2023-04-28T10:00:40.650Z,99.99
2023-04-28T10:01:40.913Z,99.99
2023-04-28T10:02:43.183Z,99.99
2023-04-28T10:03:40.742Z,99.99
2023-04-28T10:04:40.773Z,99.99
2023-04-28T10:05:40.777Z,99.99
2023-04-28T10:06:40.634Z,99.99
2023-04-28T10:07:40.644Z,99.99
2023-04-28T10:08:40.618Z,99.99
2023-04-28T10:09:40.620Z,99.99
2023-04-28T10:10:40.611Z,99.99
2023-04-28T10:11:40.611Z,99.99
2023-04-28T10:12:40.612Z,99.99
2023-04-28T10:13:40.606Z,99.99
2023-04-28T10:14:40.626Z,99.99
2023-04-28T10:15:40.617Z,99.99
2023-04-28T10:16:40.604Z,99.99
2023-04-28T10:17:40.818Z,99.99
2023-04-28T10:18:40.592Z,99.99
2023-04-28T10:19:40.590Z,99.99
2023-04-28T10:20:40.588Z,99.99
2023-04-28T10:21:40.583Z,99.99
2023-04-28T10:22:40.581Z,99.99
2023-04-28T10:23:40.577Z,99.99
2023-04-28T10:24:40.575Z,99.99
2023-04-28T10:25:40.573Z,99.99
2023-04-28T10:26:40.577Z,99.99
2023-04-28T10:27:40.570Z,99.99
2023-04-28T10:28:42.041Z,99.99
2023-04-28T10:29:40.566Z,99.99
2023-04-28T10:30:40.569Z,99.99
2023-04-28T10:31:40.590Z,99.99
2023-04-28T10:32:40.565Z,99.99
2023-04-28T10:33:40.572Z,99.99
2023-04-28T10:34:40.552Z,99.99
2023-04-28T10:35:40.554Z,99.99
2023-04-28T10:36:40.547Z,99.99
2023-04-28T10:37:40.541Z,99.99
2023-04-28T10:38:40.536Z,99.99
2023-04-28T10:39:40.552Z,99.99
2023-04-28T10:40:40.558Z,99.99
2023-04-28T10:41:40.532Z,99.99
2023-04-28T10:42:40.528Z,99.99
2023-04-28T10:43:40.524Z,99.99
2023-04-28T10:44:40.531Z,99.99
2023-04-28T10:45:41.027Z,99.99
2023-04-28T10:46:40.525Z,99.99
2023-04-28T10:47:40.532Z,99.99
2023-04-28T10:48:40.518Z,99.99
2023-04-28T10:49:40.522Z,99.99
2023-04-28T10:50:40.505Z,99.99
2023-04-28T10:51:40.504Z,99.99
2023-04-28T10:52:40.500Z,99.99
2023-04-28T10:53:40.499Z,99.99
2023-04-28T10:54:40.493Z,99.99
2023-04-28T10:55:40.494Z,99.99
2023-04-28T10:56:42.078Z,99.99
2023-04-28T10:57:40.490Z,99.99
2023-04-28T10:58:40.787Z,99.99
2023-04-28T10:59:40.481Z,99.99
2023-04-28T11:00:40.493Z,99.99
2023-04-28T11:01:40.547Z,99.99
2023-04-28T11:02:43.643Z,99.99
2023-04-28T11:03:40.610Z,99.99
2023-04-28T11:04:40.578Z,99.99
2023-04-28T11:05:40.482Z,99.99
2023-04-28T11:06:40.465Z,99.99
2023-04-28T11:07:40.480Z,99.99
2023-04-28T11:08:40.457Z,99.99
2023-04-28T11:09:40.456Z,99.99
2023-04-28T11:10:40.453Z,99.99
2023-04-28T11:11:40.505Z,99.99
2023-04-28T11:12:40.446Z,99.99
2023-04-28T11:13:42.350Z,99.99
2023-04-28T11:14:40.855Z,99.99
2023-04-28T11:15:40.442Z,99.99
2023-04-28T11:16:40.551Z,99.99
2023-04-28T11:17:40.462Z,99.99
2023-04-28T11:18:40.560Z,99.99
2023-04-28T11:19:40.454Z,99.99
2023-04-28T11:20:40.426Z,99.99
2023-04-28T11:21:40.443Z,99.99
2023-04-28T11:22:40.416Z,99.99
2023-04-28T11:23:40.415Z,99.99
2023-04-28T11:24:40.416Z,99.99
2023-04-28T11:25:40.407Z,99.99
2023-04-28T11:26:40.403Z,99.99
2023-04-28T11:27:40.402Z,99.99
2023-04-28T11:28:40.398Z,99.99
2023-04-28T11:29:40.396Z,99.99
2023-04-28T11:30:40.394Z,99.99
2023-04-28T11:31:40.430Z,99.99
2023-04-28T11:32:40.413Z,99.99
2023-04-28T11:33:40.388Z,99.99
2023-04-28T11:34:40.388Z,99.99
2023-04-28T11:35:40.384Z,99.99
2023-04-28T11:36:40.377Z,99.99
2023-04-28T11:37:40.396Z,99.99
2023-04-28T11:38:40.376Z,99.99
2023-04-28T11:39:40.373Z,99.99
2023-04-28T11:40:40.370Z,99.99
2023-04-28T11:41:40.381Z,99.99
2023-04-28T11:42:40.364Z,99.99
2023-04-28T11:43:47.351Z,99.99
2023-04-28T11:44:40.361Z,99.99
2023-04-28T11:45:40.370Z,99.99
2023-04-28T11:46:40.353Z,99.99
2023-04-28T11:47:40.404Z,99.99
2023-04-28T11:48:40.351Z,99.99
2023-04-28T11:49:40.350Z,99.99
2023-04-28T11:50:40.350Z,99.99
2023-04-28T11:51:40.342Z,99.99
2023-04-28T11:52:40.340Z,99.99
2023-04-28T11:53:40.359Z,99.99
2023-04-28T11:54:40.345Z,99.99
2023-04-28T11:55:40.345Z,99.99
2023-04-28T11:56:40.339Z,99.99
2023-04-28T11:57:40.335Z,99.99
2023-04-28T11:58:40.782Z,99.99
2023-04-28T11:59:42.748Z,99.99
2023-04-28T12:00:40.320Z,99.99
2023-04-28T12:01:40.320Z,99.99
2023-04-28T12:02:40.419Z,99.99
2023-04-28T12:03:40.410Z,99.99
2023-04-28T12:04:40.325Z,99.99
2023-04-28T12:05:40.362Z,99.99
2023-04-28T12:06:40.304Z,99.99
2023-04-28T12:07:40.308Z,99.99
2023-04-28T12:08:40.302Z,99.99
2023-04-28T12:09:40.429Z,99.99
2023-04-28T12:10:40.297Z,99.99
2023-04-28T12:11:40.297Z,99.99
2023-04-28T12:12:50.661Z,99.99
2023-04-28T12:13:40.300Z,99.99
2023-04-28T12:14:40.528Z,99.99
2023-04-28T12:15:40.358Z,99.99
2023-04-28T12:16:40.293Z,99.99
2023-04-28T12:17:40.327Z,99.99
2023-04-28T12:18:40.279Z,99.99
2023-04-28T12:19:40.460Z,99.99
2023-04-28T12:20:40.276Z,99.99
2023-04-28T12:21:40.274Z,99.99
2023-04-28T12:22:40.269Z,99.99
2023-04-28T12:23:40.268Z,99.99
2023-04-28T12:24:40.267Z,99.99
2023-04-28T12:25:40.305Z,99.99
2023-04-28T12:26:40.264Z,99.99
2023-04-28T12:27:40.267Z,99.99
2023-04-28T12:28:40.263Z,99.99
2023-04-28T12:29:40.456Z,99.99
2023-04-28T12:30:40.252Z,99.99
2023-04-28T12:31:40.285Z,99.99
2023-04-28T12:32:40.273Z,99.99
2023-04-28T12:33:40.249Z,99.99
2023-04-28T12:34:40.248Z,99.99
2023-04-28T12:35:40.246Z,99.99
2023-04-28T12:36:40.241Z,99.99
2023-04-28T12:37:40.248Z,99.99
2023-04-28T12:38:40.235Z,99.99
2023-04-28T12:39:40.239Z,99.99
2023-04-28T12:40:40.238Z,99.99
2023-04-28T12:41:40.271Z,99.99
2023-04-28T12:42:40.236Z,99.99
2023-04-28T12:43:40.233Z,99.99
2023-04-28T12:44:40.230Z,99.99
2023-04-28T12:45:40.224Z,99.99
2023-04-28T12:46:40.295Z,99.99
2023-04-28T12:47:40.276Z,99.99
2023-04-28T12:48:40.231Z,99.99
2023-04-28T12:49:40.247Z,99.99
2023-04-28T12:50:40.216Z,99.99
2023-04-28T12:51:40.221Z,99.99
2023-04-28T12:52:40.220Z,99.99
2023-04-28T12:53:40.220Z,99.99